Terminal Aerodrome Forecast
Issued by NWS Green Bay, WI

Home | Current Version | Previous Version | Graphics & Text | Print | Product List | Glossary On
Versions: 1 2 3 4 5 6 7 8 9 10 11 12 13 14 15 16 17 18 19 20 21 22 23 24 25 26 27 28 29 30 31 32 33 34 35 36 37 38 39 40 41 42 43 44 45 46 47 48 49 50
041
FTUS43 KGRB 261259 AAA
TAFGRB
TAF AMD
KGRB 261259Z 2613/2712 04011KT 6SM -RA BR OVC003
      TEMPO 2613/2616 2SM -RA BR OVC003
     FM261600 03008KT 4SM -RA BR OVC005
     FM262300 35007KT 4SM -RA BR OVC004
     FM270400 34003KT 1SM BR OVC002=

USA.gov is the U.S. government's official web portal to all federal, state and local government web resources and services.